Time;durP1;ratioP1;P1;durP2;ratioP2;P2;SDS_P1;SDS_P2;PMS_P1;PMS_P2;Temp;Humidity;BMP_temperature;BMP_pressure;BME280_temperature;BME280_humidity;BME280_pressure;Samples;Min_cycle;Max_cycle;Signal;HPM_P1;HPM_P2
2023/10/22 00:00:54;;;;;;;;;;;;;;;;;;54031;1256;1038593;-79
2023/10/22 00:03:41;;;;;;;;;;;;;;;;;;53962;1256;1038969;-79
2023/10/22 00:06:07;;;;;;;;;;;;;;;;;;53981;1255;1003412;-79
2023/10/22 00:08:34;;;;;;;;;;;;;;;;;;54002;1253;1045747;-80
2023/10/22 00:11:00;;;;;;;;;;;;;;;;;;54070;1253;1003609;-80
2023/10/22 00:13:27;;;;;;;;;;;;;;;;;;54007;1253;1061689;-79
2023/10/22 00:15:54;;;;;;;;;;;;;;;;;;54061;1253;1003469;-79
2023/10/22 00:18:20;;;;;;;;;;;;;;;;;;54070;1253;1057359;-79
2023/10/22 00:20:46;;;;;;;;;;;;;;;;;;54014;1253;1003396;-79
2023/10/22 00:23:13;;;;;;;;;;;;;;;;;;54050;1255;1059416;-79
2023/10/22 00:25:39;;;;;;;;;;;;;;;;;;54029;1253;1003674;-79
2023/10/22 00:28:06;;;;;;;;;;;;;;;;;;54000;1254;1038472;-79
2023/10/22 00:30:34;;;;;;;;;;;;;;;;;;54048;1253;1003409;-79
2023/10/22 00:33:00;;;;;;;;;;;;;;;;;;54024;1254;1045936;-80
2023/10/22 00:35:27;;;;;;;;;;;;;;;;;;54040;1253;1003754;-80
2023/10/22 00:37:53;;;;;;;;;;;;;;;;;;54038;1253;1061076;-80
2023/10/22 00:40:20;;;;;;;;;;;;;;;;;;54000;1255;1003673;-78
2023/10/22 00:42:46;;;;;;;;;;;;;;;;;;54075;1253;1057230;-79
2023/10/22 00:45:12;;;;;;;;;;;;;;;;;;54028;1254;1003658;-79
2023/10/22 00:47:39;;;;;;;;;;;;;;;;;;54007;1254;1058675;-80
2023/10/22 00:50:06;;;;;;;;;;;;;;;;;;54042;1254;1003416;-80
2023/10/22 00:52:33;;;;;;;;;;;;;;;;;;53924;1256;1038574;-79
2023/10/22 00:54:59;;;;;;;;;;;;;;;;;;54036;1252;1003524;-80
2023/10/22 00:57:26;;;;;;;;;;;;;;;;;;53993;1254;1045849;-79
2023/10/22 01:00:00;;;;;;;;;;;;;;;;;;105843;1289;599210;-80
2023/10/22 01:02:26;;;;;;;;;;;;;;;;;;108486;1266;56769;-80
2023/10/22 01:04:52;;;;;;;;;;;;;;;;;;108503;1266;57190;-80
2023/10/22 01:07:19;;;;;;;;;;;;;;;;;;108457;1264;57574;-80
2023/10/22 01:09:45;;;;;;;;;;;;;;;;;;108451;1265;57869;-79
2023/10/22 01:12:11;;;;;;;;;;;;;;;;;;108451;1265;56862;-80
2023/10/22 01:14:37;;;;;;;;;;;;;;;;;;108423;1262;212181;-80
2023/10/22 01:17:04;;;;;;;;;;;;;;;;;;108645;1262;57332;-80
2023/10/22 01:19:30;;;;;;;;;;;;;;;;;;108577;1263;57577;-79
2023/10/22 01:21:56;;;;;;;;;;;;;;;;;;108590;1263;57299;-79
2023/10/22 01:24:23;;;;;;;;;;;;;;;;;;108553;1263;57545;-80
2023/10/22 01:26:49;;;;;;;;;;;;;;;;;;108585;1262;57490;-80
2023/10/22 01:29:15;;;;;;;;;;;;;;;;;;108557;1262;57314;-80
2023/10/22 01:31:42;;;;;;;;;;;;;;;;;;109233;1253;58058;-80
2023/10/22 01:34:08;;;;;;;;;;;;;;;;;;109343;1255;57973;-79
2023/10/22 01:36:34;;;;;;;;;;;;;;;;;;109333;1251;58098;-80
2023/10/22 01:39:01;;;;;;;;;;;;;;;;;;109281;1251;58130;-79
2023/10/22 01:41:27;;;;;;;;;;;;;;;;;;109369;1251;57491;-79
2023/10/22 01:43:53;;;;;;;;;;;;;;;;;;109352;1251;58767;-80
2023/10/22 01:46:20;;;;;;;;;;;;;;;;;;109392;1251;57431;-80
2023/10/22 01:48:47;;;;;;;;;;;;;;;;;;109368;1251;58822;-80
2023/10/22 01:51:13;;;;;;;;;;;;;;;;;;109406;1251;57994;-78
2023/10/22 01:53:41;;;;;;;;;;;;;;;;;;109379;1251;57737;-80
2023/10/22 01:56:09;;;;;;;;;;;;;;;;;;109371;1251;59306;-80
2023/10/22 01:58:35;;;;;;;;;;;;;;;;;;109404;1251;59802;-80
2023/10/22 02:01:02;;;;;;;;;;;;;;;;;;109388;1251;57731;-79
2023/10/22 02:03:28;;;;;;;;;;;;;;;;;;109344;1251;58625;-80
2023/10/22 02:05:55;;;;;;;;;;;;;;;;;;109364;1255;57408;-80
2023/10/22 02:08:21;;;;;;;;;;;;;;;;;;109311;1251;58116;-80
2023/10/22 02:10:47;;;;;;;;;;;;;;;;;;109295;1251;57671;-80
2023/10/22 02:13:14;;;;;;;;;;;;;;;;;;109293;1251;58077;-80
2023/10/22 02:15:40;;;;;;;;;;;;;;;;;;109331;1252;57463;-79
2023/10/22 02:18:07;;;;;;;;;;;;;;;;;;109265;1251;57455;-80
2023/10/22 02:20:33;;;;;;;;;;;;;;;;;;109301;1251;58158;-80
2023/10/22 02:23:01;;;;;;;;;;;;;;;;;;109278;1251;57683;-80
2023/10/22 02:25:27;;;;;;;;;;;;;;;;;;109322;1251;58118;-81
2023/10/22 02:27:54;;;;;;;;;;;;;;;;;;109301;1251;57551;-80
2023/10/22 02:30:20;;;;;;;;;;;;;;;;;;109322;1251;60299;-80
2023/10/22 02:32:46;;;;;;;;;;;;;;;;;;109306;1255;57569;-81
2023/10/22 02:35:14;;;;;;;;;;;;;;;;;;109299;1251;58010;-80
2023/10/22 02:37:40;;;;;;;;;;;;;;;;;;109292;1256;58100;-79
2023/10/22 02:40:09;;;;;;;;;;;;;;;;;;109299;1253;57759;-80
2023/10/22 02:42:35;;;;;;;;;;;;;;;;;;109312;1251;61210;-80
2023/10/22 02:45:02;;;;;;;;;;;;;;;;;;109337;1251;57621;-79
2023/10/22 02:47:28;;;;;;;;;;;;;;;;;;109318;1251;58055;-79
2023/10/22 02:49:54;;;;;;;;;;;;;;;;;;109275;1251;58053;-80
2023/10/22 02:52:21;;;;;;;;;;;;;;;;;;109351;1251;57665;-79
2023/10/22 02:54:48;;;;;;;;;;;;;;;;;;109343;1256;57498;-80
2023/10/22 02:57:15;;;;;;;;;;;;;;;;;;109354;1251;59340;-79
2023/10/22 02:59:41;;;;;;;;;;;;;;;;;;109374;1251;57536;-79
2023/10/22 03:02:07;;;;;;;;;;;;;;;;;;109323;1251;57589;-79
2023/10/22 03:04:34;;;;;;;;;;;;;;;;;;109257;1253;57803;-79
2023/10/22 03:07:00;;;;;;;;;;;;;;;;;;109280;1254;57866;-80
2023/10/22 03:09:26;;;;;;;;;;;;;;;;;;109315;1252;57787;-80
2023/10/22 03:11:53;;;;;;;;;;;;;;;;;;109288;1254;58152;-80
2023/10/22 03:14:22;;;;;;;;;;;;;;;;;;109235;1252;57634;-79
2023/10/22 03:16:48;;;;;;;;;;;;;;;;;;109270;1253;58189;-80
2023/10/22 03:19:17;;;;;;;;;;;;;;;;;;109293;1256;57509;-79
2023/10/22 03:21:44;;;;;;;;;;;;;;;;;;109273;1252;57522;-79
2023/10/22 03:24:12;;;;;;;;;;;;;;;;;;109273;1253;60372;-80
2023/10/22 03:26:38;;;;;;;;;;;;;;;;;;109281;1253;57489;-81
2023/10/22 03:29:05;;;;;;;;;;;;;;;;;;109288;1256;57499;-80
2023/10/22 03:31:31;;;;;;;;;;;;;;;;;;109280;1254;57583;-79
2023/10/22 03:33:58;;;;;;;;;;;;;;;;;;109311;1254;57380;-80
2023/10/22 03:36:24;;;;;;;;;;;;;;;;;;109260;1253;58046;-79
2023/10/22 03:38:50;;;;;;;;;;;;;;;;;;109292;1254;57588;-80
2023/10/22 03:41:17;;;;;;;;;;;;;;;;;;109290;1253;58040;-79
2023/10/22 03:43:43;;;;;;;;;;;;;;;;;;109272;1252;57374;-79
2023/10/22 03:46:10;;;;;;;;;;;;;;;;;;109289;1251;57653;-80
2023/10/22 03:48:37;;;;;;;;;;;;;;;;;;109331;1251;60603;-79
2023/10/22 03:51:03;;;;;;;;;;;;;;;;;;109352;1251;57423;-79
2023/10/22 03:53:29;;;;;;;;;;;;;;;;;;109340;1256;57371;-79
2023/10/22 03:55:56;;;;;;;;;;;;;;;;;;109345;1251;58196;-79
2023/10/22 03:58:25;;;;;;;;;;;;;;;;;;109317;1256;57920;-80
2023/10/22 04:00:51;;;;;;;;;;;;;;;;;;109344;1251;60472;-80
2023/10/22 04:03:17;;;;;;;;;;;;;;;;;;109289;1254;57654;-79
2023/10/22 04:05:44;;;;;;;;;;;;;;;;;;109312;1251;57552;-80
2023/10/22 04:08:10;;;;;;;;;;;;;;;;;;109357;1251;58026;-80
2023/10/22 04:10:36;;;;;;;;;;;;;;;;;;109409;1251;58201;-80
2023/10/22 04:13:03;;;;;;;;;;;;;;;;;;109353;1251;58094;-80
2023/10/22 04:15:29;;;;;;;;;;;;;;;;;;109331;1251;58132;-80
2023/10/22 04:17:56;;;;;;;;;;;;;;;;;;109356;1251;57499;-80
2023/10/22 04:20:22;;;;;;;;;;;;;;;;;;109329;1251;57595;-80
2023/10/22 04:22:48;;;;;;;;;;;;;;;;;;109372;1251;57634;-80
2023/10/22 04:25:14;;;;;;;;;;;;;;;;;;109315;1251;57528;-80
2023/10/22 04:27:41;;;;;;;;;;;;;;;;;;109386;1251;57421;-80
2023/10/22 04:30:07;;;;;;;;;;;;;;;;;;109341;1251;57783;-79
2023/10/22 04:32:33;;;;;;;;;;;;;;;;;;109350;1251;57561;-79
2023/10/22 04:35:00;;;;;;;;;;;;;;;;;;109320;1251;57459;-80
2023/10/22 04:37:27;;;;;;;;;;;;;;;;;;109342;1251;57613;-79
2023/10/22 04:39:55;;;;;;;;;;;;;;;;;;109339;1251;58012;-80
2023/10/22 04:42:22;;;;;;;;;;;;;;;;;;109296;1251;57362;-81
2023/10/22 04:44:48;;;;;;;;;;;;;;;;;;109304;1251;58141;-79
2023/10/22 04:47:14;;;;;;;;;;;;;;;;;;109289;1251;58069;-80
2023/10/22 04:49:43;;;;;;;;;;;;;;;;;;109319;1251;58030;-79
2023/10/22 04:52:10;;;;;;;;;;;;;;;;;;109269;1251;57969;-80
2023/10/22 04:54:36;;;;;;;;;;;;;;;;;;109319;1251;58145;-80
2023/10/22 04:57:03;;;;;;;;;;;;;;;;;;109307;1251;58065;-80
2023/10/22 04:59:29;;;;;;;;;;;;;;;;;;109342;1251;58086;-80
2023/10/22 05:01:55;;;;;;;;;;;;;;;;;;109315;1251;58034;-80
2023/10/22 05:04:22;;;;;;;;;;;;;;;;;;109289;1251;58384;-80
2023/10/22 05:06:48;;;;;;;;;;;;;;;;;;109294;1251;58265;-80
2023/10/22 05:09:15;;;;;;;;;;;;;;;;;;109361;1251;58292;-80
2023/10/22 05:11:41;;;;;;;;;;;;;;;;;;109288;1251;58683;-80
2023/10/22 05:14:07;;;;;;;;;;;;;;;;;;109289;1251;58273;-79
2023/10/22 05:16:34;;;;;;;;;;;;;;;;;;109270;1251;59043;-80
2023/10/22 05:19:00;;;;;;;;;;;;;;;;;;109310;1251;58326;-80
2023/10/22 05:21:26;;;;;;;;;;;;;;;;;;109258;1251;58456;-80
2023/10/22 05:23:53;;;;;;;;;;;;;;;;;;109321;1251;58245;-80
2023/10/22 05:26:19;;;;;;;;;;;;;;;;;;109293;1251;58837;-80
2023/10/22 05:28:45;;;;;;;;;;;;;;;;;;109368;1251;58219;-79
2023/10/22 05:31:11;;;;;;;;;;;;;;;;;;109416;1251;58791;-80
2023/10/22 05:33:38;;;;;;;;;;;;;;;;;;109361;1251;58893;-79
2023/10/22 05:36:04;;;;;;;;;;;;;;;;;;109289;1251;58945;-79
2023/10/22 05:38:30;;;;;;;;;;;;;;;;;;109319;1251;58835;-79
2023/10/22 05:40:57;;;;;;;;;;;;;;;;;;109229;1251;58437;-81
2023/10/22 05:43:24;;;;;;;;;;;;;;;;;;109245;1251;58472;-80
2023/10/22 05:45:50;;;;;;;;;;;;;;;;;;109306;1251;58565;-80
2023/10/22 05:48:16;;;;;;;;;;;;;;;;;;109343;1251;58288;-80
2023/10/22 05:50:42;;;;;;;;;;;;;;;;;;109309;1251;58175;-80
2023/10/22 05:53:09;;;;;;;;;;;;;;;;;;109357;1251;58289;-80
2023/10/22 05:55:35;;;;;;;;;;;;;;;;;;109315;1251;58609;-79
2023/10/22 05:58:01;;;;;;;;;;;;;;;;;;109290;1252;58750;-79
2023/10/22 06:00:28;;;;;;;;;;;;;;;;;;109266;1252;58128;-80
2023/10/22 06:02:54;;;;;;;;;;;;;;;;;;109280;1251;58312;-80
2023/10/22 06:05:20;;;;;;;;;;;;;;;;;;109325;1251;58530;-80
2023/10/22 06:07:47;;;;;;;;;;;;;;;;;;109314;1251;58453;-80
2023/10/22 06:10:13;;;;;;;;;;;;;;;;;;109303;1251;58211;-79
2023/10/22 06:12:39;;;;;;;;;;;;;;;;;;109278;1251;58226;-80
2023/10/22 06:15:06;;;;;;;;;;;;;;;;;;109336;1251;58622;-80
2023/10/22 06:17:32;;;;;;;;;;;;;;;;;;109321;1251;58110;-80
2023/10/22 06:19:59;;;;;;;;;;;;;;;;;;109311;1251;58336;-80
2023/10/22 06:22:26;;;;;;;;;;;;;;;;;;109374;1251;58270;-79
2023/10/22 06:24:52;;;;;;;;;;;;;;;;;;109341;1251;58426;-80
2023/10/22 06:27:18;;;;;;;;;;;;;;;;;;109349;1251;58190;-80
2023/10/22 06:29:45;;;;;;;;;;;;;;;;;;109329;1251;59111;-79
2023/10/22 06:32:11;;;;;;;;;;;;;;;;;;109339;1251;58311;-79
2023/10/22 06:34:37;;;;;;;;;;;;;;;;;;109317;1251;58414;-80
2023/10/22 06:37:04;;;;;;;;;;;;;;;;;;109339;1251;59010;-80
2023/10/22 06:39:30;;;;;;;;;;;;;;;;;;109307;1251;58610;-80
2023/10/22 06:41:57;;;;;;;;;;;;;;;;;;109343;1251;58603;-79
2023/10/22 06:44:23;;;;;;;;;;;;;;;;;;109362;1251;58401;-80
2023/10/22 06:46:50;;;;;;;;;;;;;;;;;;109362;1251;58897;-79
2023/10/22 06:49:16;;;;;;;;;;;;;;;;;;109343;1251;58101;-80
2023/10/22 06:51:43;;;;;;;;;;;;;;;;;;109303;1251;58847;-80
2023/10/22 06:54:09;;;;;;;;;;;;;;;;;;109335;1251;58158;-80
2023/10/22 06:56:35;;;;;;;;;;;;;;;;;;109348;1251;58661;-80
2023/10/22 06:59:03;;;;;;;;;;;;;;;;;;109348;1251;58825;-80
2023/10/22 07:01:30;;;;;;;;;;;;;;;;;;109348;1251;58194;-80
2023/10/22 07:03:56;;;;;;;;;;;;;;;;;;109313;1251;58783;-80
2023/10/22 07:06:22;;;;;;;;;;;;;;;;;;109366;1251;58826;-79
2023/10/22 07:08:49;;;;;;;;;;;;;;;;;;109349;1251;58268;-79
2023/10/22 07:11:15;;;;;;;;;;;;;;;;;;109334;1251;58296;-79
2023/10/22 07:13:41;;;;;;;;;;;;;;;;;;109338;1251;58640;-80
2023/10/22 07:16:08;;;;;;;;;;;;;;;;;;109333;1251;58725;-80
2023/10/22 07:18:34;;;;;;;;;;;;;;;;;;109368;1251;58134;-79
2023/10/22 07:21:01;;;;;;;;;;;;;;;;;;109319;1251;58136;-79
2023/10/22 07:23:31;;;;;;;;;;;;;;;;;;109344;1251;58793;-79
2023/10/22 07:25:57;;;;;;;;;;;;;;;;;;109314;1251;60761;-79
2023/10/22 07:28:24;;;;;;;;;;;;;;;;;;109311;1251;58289;-80
2023/10/22 07:30:51;;;;;;;;;;;;;;;;;;109322;1251;58348;-80
2023/10/22 07:33:17;;;;;;;;;;;;;;;;;;109310;1251;60807;-79
2023/10/22 07:35:44;;;;;;;;;;;;;;;;;;109286;1251;59004;-79
2023/10/22 07:38:10;;;;;;;;;;;;;;;;;;109357;1251;58738;-80
2023/10/22 07:40:36;;;;;;;;;;;;;;;;;;109330;1251;58617;-80
2023/10/22 07:43:03;;;;;;;;;;;;;;;;;;109354;1251;58870;-79
2023/10/22 07:45:29;;;;;;;;;;;;;;;;;;109349;1251;58514;-79
2023/10/22 07:47:55;;;;;;;;;;;;;;;;;;109343;1251;58296;-79
2023/10/22 07:50:22;;;;;;;;;;;;;;;;;;109315;1251;58606;-80
2023/10/22 07:52:48;;;;;;;;;;;;;;;;;;109373;1251;58218;-80
2023/10/22 07:55:14;;;;;;;;;;;;;;;;;;109345;1251;58796;-79
2023/10/22 07:57:41;;;;;;;;;;;;;;;;;;109312;1251;58279;-79
2023/10/22 08:00:07;;;;;;;;;;;;;;;;;;109340;1251;58212;-79
2023/10/22 08:02:34;;;;;;;;;;;;;;;;;;109339;1252;58875;-80
2023/10/22 08:05:00;;;;;;;;;;;;;;;;;;109319;1251;58802;-80
2023/10/22 08:07:27;;;;;;;;;;;;;;;;;;109342;1251;58817;-80
2023/10/22 08:09:54;;;;;;;;;;;;;;;;;;109386;1251;58791;-80
2023/10/22 08:12:20;;;;;;;;;;;;;;;;;;109340;1251;58773;-80
2023/10/22 08:14:46;;;;;;;;;;;;;;;;;;109337;1251;58355;-80
2023/10/22 08:17:13;;;;;;;;;;;;;;;;;;109359;1251;58304;-80
2023/10/22 08:19:39;;;;;;;;;;;;;;;;;;109379;1251;58871;-80
2023/10/22 08:22:05;;;;;;;;;;;;;;;;;;109376;1251;58869;-80
2023/10/22 08:24:32;;;;;;;;;;;;;;;;;;109352;1251;58285;-80
2023/10/22 08:26:58;;;;;;;;;;;;;;;;;;109339;1251;58233;-80
2023/10/22 08:29:25;;;;;;;;;;;;;;;;;;109374;1251;58308;-80
2023/10/22 08:31:51;;;;;;;;;;;;;;;;;;109338;1251;58860;-80
2023/10/22 08:34:19;;;;;;;;;;;;;;;;;;109368;1251;58190;-79
2023/10/22 08:36:45;;;;;;;;;;;;;;;;;;109378;1251;58281;-80
2023/10/22 08:39:11;;;;;;;;;;;;;;;;;;109348;1251;58295;-79
2023/10/22 08:41:38;;;;;;;;;;;;;;;;;;109346;1251;58925;-80
2023/10/22 08:44:04;;;;;;;;;;;;;;;;;;109355;1251;58237;-80
2023/10/22 08:46:30;;;;;;;;;;;;;;;;;;109353;1251;58366;-80
2023/10/22 08:48:57;;;;;;;;;;;;;;;;;;109344;1251;58953;-80
2023/10/22 08:51:23;;;;;;;;;;;;;;;;;;109345;1251;58578;-80
2023/10/22 08:53:49;;;;;;;;;;;;;;;;;;109336;1251;58917;-79
2023/10/22 08:56:16;;;;;;;;;;;;;;;;;;109329;1251;58332;-80
2023/10/22 08:58:42;;;;;;;;;;;;;;;;;;109383;1251;58298;-79
2023/10/22 09:01:08;;;;;;;;;;;;;;;;;;109366;1251;58509;-80
2023/10/22 09:03:35;;;;;;;;;;;;;;;;;;109308;1252;58238;-80
2023/10/22 09:06:03;;;;;;;;;;;;;;;;;;109312;1251;58533;-80
2023/10/22 09:08:29;;;;;;;;;;;;;;;;;;109320;1251;58830;-80
2023/10/22 09:10:55;;;;;;;;;;;;;;;;;;109328;1251;58837;-80
2023/10/22 09:13:22;;;;;;;;;;;;;;;;;;109391;1251;58869;-79
2023/10/22 09:15:48;;;;;;;;;;;;;;;;;;109372;1251;58308;-80
2023/10/22 09:18:15;;;;;;;;;;;;;;;;;;109303;1251;58803;-80
2023/10/22 09:20:41;;;;;;;;;;;;;;;;;;109365;1251;58188;-80
2023/10/22 09:23:08;;;;;;;;;;;;;;;;;;109367;1251;58462;-80
2023/10/22 09:25:34;;;;;;;;;;;;;;;;;;109375;1251;58790;-80
2023/10/22 09:28:00;;;;;;;;;;;;;;;;;;109343;1251;58280;-80
2023/10/22 09:30:27;;;;;;;;;;;;;;;;;;109340;1251;58782;-80
2023/10/22 09:32:53;;;;;;;;;;;;;;;;;;109347;1251;58996;-80
2023/10/22 09:35:20;;;;;;;;;;;;;;;;;;109346;1251;58586;-80
2023/10/22 09:37:46;;;;;;;;;;;;;;;;;;109346;1251;58425;-79
2023/10/22 09:40:12;;;;;;;;;;;;;;;;;;109370;1251;58280;-79
2023/10/22 09:42:39;;;;;;;;;;;;;;;;;;109323;1251;58224;-80
2023/10/22 09:45:05;;;;;;;;;;;;;;;;;;109376;1251;58215;-80
2023/10/22 09:47:31;;;;;;;;;;;;;;;;;;109341;1251;58942;-80
2023/10/22 09:49:57;;;;;;;;;;;;;;;;;;109371;1251;58913;-81
2023/10/22 09:52:24;;;;;;;;;;;;;;;;;;109390;1252;58271;-80
2023/10/22 09:54:50;;;;;;;;;;;;;;;;;;109326;1251;58847;-80
2023/10/22 09:57:16;;;;;;;;;;;;;;;;;;109362;1251;58204;-80
2023/10/22 09:59:43;;;;;;;;;;;;;;;;;;109337;1251;58316;-80
2023/10/22 10:02:09;;;;;;;;;;;;;;;;;;109394;1251;58656;-80
2023/10/22 10:04:37;;;;;;;;;;;;;;;;;;109297;1251;58528;-80
2023/10/22 10:07:03;;;;;;;;;;;;;;;;;;109333;1251;58823;-80
2023/10/22 10:09:30;;;;;;;;;;;;;;;;;;109370;1251;58288;-80
2023/10/22 10:11:56;;;;;;;;;;;;;;;;;;109366;1251;58239;-80
2023/10/22 10:14:23;;;;;;;;;;;;;;;;;;109340;1251;58227;-81
2023/10/22 10:16:49;;;;;;;;;;;;;;;;;;109373;1251;58903;-80
2023/10/22 10:19:15;;;;;;;;;;;;;;;;;;109344;1251;58199;-80
2023/10/22 10:21:46;;;;;;;;;;;;;;;;;;109370;1251;58302;-80
2023/10/22 10:24:12;;;;;;;;;;;;;;;;;;109364;1251;58173;-81
2023/10/22 10:26:38;;;;;;;;;;;;;;;;;;109297;1251;58909;-80
2023/10/22 10:29:05;;;;;;;;;;;;;;;;;;109323;1251;58972;-80
2023/10/22 10:31:31;;;;;;;;;;;;;;;;;;109310;1251;58329;-80
2023/10/22 10:33:57;;;;;;;;;;;;;;;;;;109343;1251;59016;-80
2023/10/22 10:36:23;;;;;;;;;;;;;;;;;;109369;1251;58674;-79
2023/10/22 10:38:50;;;;;;;;;;;;;;;;;;109342;1251;58612;-80
2023/10/22 10:41:16;;;;;;;;;;;;;;;;;;109351;1251;58223;-80
2023/10/22 10:43:42;;;;;;;;;;;;;;;;;;109289;1251;58820;-80
2023/10/22 10:46:09;;;;;;;;;;;;;;;;;;109328;1251;58834;-80
2023/10/22 10:48:35;;;;;;;;;;;;;;;;;;109389;1251;58601;-80
2023/10/22 10:51:01;;;;;;;;;;;;;;;;;;109288;1251;58820;-80
2023/10/22 10:53:29;;;;;;;;;;;;;;;;;;109361;1251;58911;-80
2023/10/22 10:55:56;;;;;;;;;;;;;;;;;;109361;1251;58306;-80
2023/10/22 10:58:22;;;;;;;;;;;;;;;;;;109382;1251;58274;-80
2023/10/22 11:00:48;;;;;;;;;;;;;;;;;;109341;1251;58252;-80
2023/10/22 11:03:14;;;;;;;;;;;;;;;;;;109323;1253;58419;-81
2023/10/22 11:05:44;;;;;;;;;;;;;;;;;;109323;1251;58319;-80
2023/10/22 11:08:10;;;;;;;;;;;;;;;;;;109335;1251;58886;-80
2023/10/22 11:10:36;;;;;;;;;;;;;;;;;;109365;1255;58441;-80
2023/10/22 11:13:03;;;;;;;;;;;;;;;;;;109362;1251;58256;-80
2023/10/22 11:15:29;;;;;;;;;;;;;;;;;;109298;1251;58841;-81
2023/10/22 11:17:56;;;;;;;;;;;;;;;;;;109308;1251;58969;-80
2023/10/22 11:20:23;;;;;;;;;;;;;;;;;;109342;1251;58278;-80
2023/10/22 11:22:49;;;;;;;;;;;;;;;;;;109315;1251;60759;-80
2023/10/22 11:25:19;;;;;;;;;;;;;;;;;;109409;1251;58664;-79
2023/10/22 11:27:45;;;;;;;;;;;;;;;;;;109348;1251;60718;-80
2023/10/22 11:30:11;;;;;;;;;;;;;;;;;;109276;1252;58974;-79
2023/10/22 11:32:38;;;;;;;;;;;;;;;;;;109254;1251;58809;-80
2023/10/22 11:35:06;;;;;;;;;;;;;;;;;;109249;1251;62021;-79
2023/10/22 11:37:41;;;;;;;;;;;;;;;;;;109309;1251;58632;-80
2023/10/22 11:40:07;;;;;;;;;;;;;;;;;;109308;1251;59448;-80
2023/10/22 11:42:34;;;;;;;;;;;;;;;;;;109307;1251;58391;-80
2023/10/22 11:45:00;;;;;;;;;;;;;;;;;;109225;1251;58239;-80
2023/10/22 11:47:27;;;;;;;;;;;;;;;;;;109293;1251;58873;-80
2023/10/22 11:49:54;;;;;;;;;;;;;;;;;;109310;1251;58209;-79
2023/10/22 11:52:20;;;;;;;;;;;;;;;;;;109263;1251;59704;-80
2023/10/22 11:54:47;;;;;;;;;;;;;;;;;;109290;1251;58752;-80
2023/10/22 11:57:13;;;;;;;;;;;;;;;;;;109318;1251;58290;-79
2023/10/22 11:59:39;;;;;;;;;;;;;;;;;;109361;1251;58804;-80
2023/10/22 12:02:06;;;;;;;;;;;;;;;;;;109338;1253;58452;-80
2023/10/22 12:04:32;;;;;;;;;;;;;;;;;;109319;1251;58230;-80
2023/10/22 12:07:00;;;;;;;;;;;;;;;;;;109352;1251;58715;-80
2023/10/22 12:09:26;;;;;;;;;;;;;;;;;;109336;1251;58793;-80
2023/10/22 12:11:53;;;;;;;;;;;;;;;;;;109337;1251;58494;-80
2023/10/22 12:14:20;;;;;;;;;;;;;;;;;;109274;1251;59069;-80
2023/10/22 12:16:46;;;;;;;;;;;;;;;;;;109342;1251;58725;-80
2023/10/22 12:19:13;;;;;;;;;;;;;;;;;;109222;1251;59008;-81
2023/10/22 12:21:39;;;;;;;;;;;;;;;;;;109326;1250;58290;-79
2023/10/22 12:24:05;;;;;;;;;;;;;;;;;;109330;1251;59014;-80
2023/10/22 12:26:32;;;;;;;;;;;;;;;;;;109301;1251;58653;-80
2023/10/22 12:28:58;;;;;;;;;;;;;;;;;;109298;1251;58306;-81
2023/10/22 12:31:25;;;;;;;;;;;;;;;;;;109278;1251;58260;-80
2023/10/22 12:33:51;;;;;;;;;;;;;;;;;;109369;1251;58855;-80
2023/10/22 12:36:17;;;;;;;;;;;;;;;;;;109316;1251;58317;-80
2023/10/22 12:38:44;;;;;;;;;;;;;;;;;;109303;1251;59171;-80
2023/10/22 12:41:10;;;;;;;;;;;;;;;;;;109321;1251;58526;-80
2023/10/22 12:43:36;;;;;;;;;;;;;;;;;;109285;1251;58452;-80
2023/10/22 12:46:04;;;;;;;;;;;;;;;;;;109366;1251;58258;-80
2023/10/22 12:48:30;;;;;;;;;;;;;;;;;;109304;1251;58314;-80
2023/10/22 12:50:56;;;;;;;;;;;;;;;;;;109329;1251;58768;-80
2023/10/22 12:53:23;;;;;;;;;;;;;;;;;;109264;1252;58453;-80
2023/10/22 12:55:49;;;;;;;;;;;;;;;;;;109234;1252;58188;-80
2023/10/22 12:58:15;;;;;;;;;;;;;;;;;;109228;1253;58212;-79
2023/10/22 13:00:42;;;;;;;;;;;;;;;;;;109286;1252;58502;-79
2023/10/22 13:03:08;;;;;;;;;;;;;;;;;;109314;1253;58800;-79
2023/10/22 13:05:35;;;;;;;;;;;;;;;;;;109299;1251;58525;-79
2023/10/22 13:08:03;;;;;;;;;;;;;;;;;;109297;1251;58824;-79
2023/10/22 13:10:33;;;;;;;;;;;;;;;;;;109322;1251;58227;-80
2023/10/22 13:13:00;;;;;;;;;;;;;;;;;;109276;1251;166753;-80
2023/10/22 13:15:26;;;;;;;;;;;;;;;;;;109343;1251;58837;-80
2023/10/22 13:17:53;;;;;;;;;;;;;;;;;;109329;1251;58341;-80
2023/10/22 13:20:19;;;;;;;;;;;;;;;;;;109354;1251;58304;-80
2023/10/22 13:22:45;;;;;;;;;;;;;;;;;;109331;1251;58756;-80
2023/10/22 13:25:12;;;;;;;;;;;;;;;;;;109311;1251;58318;-80
2023/10/22 13:27:38;;;;;;;;;;;;;;;;;;109333;1251;58289;-80
2023/10/22 13:30:05;;;;;;;;;;;;;;;;;;109302;1251;58282;-79
2023/10/22 13:32:31;;;;;;;;;;;;;;;;;;109292;1255;58323;-80
2023/10/22 13:34:57;;;;;;;;;;;;;;;;;;109312;1251;58190;-80
2023/10/22 13:37:24;;;;;;;;;;;;;;;;;;109306;1253;58290;-80
2023/10/22 13:39:50;;;;;;;;;;;;;;;;;;109324;1251;58996;-80
2023/10/22 13:42:16;;;;;;;;;;;;;;;;;;109319;1251;58454;-79
2023/10/22 13:44:43;;;;;;;;;;;;;;;;;;109319;1251;58531;-79
2023/10/22 13:47:10;;;;;;;;;;;;;;;;;;109368;1251;58295;-79
2023/10/22 13:49:37;;;;;;;;;;;;;;;;;;109321;1253;58793;-80
2023/10/22 13:52:04;;;;;;;;;;;;;;;;;;109378;1253;58688;-80
2023/10/22 13:54:30;;;;;;;;;;;;;;;;;;109327;1251;58327;-80
2023/10/22 13:56:56;;;;;;;;;;;;;;;;;;109333;1251;58866;-80
2023/10/22 13:59:22;;;;;;;;;;;;;;;;;;109332;1251;58316;-79
2023/10/22 14:01:49;;;;;;;;;;;;;;;;;;109350;1252;58205;-79
2023/10/22 14:04:15;;;;;;;;;;;;;;;;;;109314;1251;58634;-80
2023/10/22 14:06:41;;;;;;;;;;;;;;;;;;109338;1253;58456;-80
2023/10/22 14:09:10;;;;;;;;;;;;;;;;;;109306;1251;58903;-80
2023/10/22 14:11:37;;;;;;;;;;;;;;;;;;109352;1251;58166;-79
2023/10/22 14:14:04;;;;;;;;;;;;;;;;;;109320;1251;61159;-80
2023/10/22 14:16:30;;;;;;;;;;;;;;;;;;109356;1251;58822;-80
2023/10/22 14:18:56;;;;;;;;;;;;;;;;;;109292;1252;58341;-80
2023/10/22 14:21:23;;;;;;;;;;;;;;;;;;109323;1251;58565;-80
2023/10/22 14:23:49;;;;;;;;;;;;;;;;;;109321;1253;58684;-80
2023/10/22 14:26:15;;;;;;;;;;;;;;;;;;109343;1251;58569;-80
2023/10/22 14:28:42;;;;;;;;;;;;;;;;;;109323;1251;58568;-79
2023/10/22 14:31:08;;;;;;;;;;;;;;;;;;109307;1252;58445;-80
2023/10/22 14:33:34;;;;;;;;;;;;;;;;;;109292;1251;58811;-80
2023/10/22 14:36:01;;;;;;;;;;;;;;;;;;109303;1251;58329;-80
2023/10/22 14:38:27;;;;;;;;;;;;;;;;;;109281;1253;58710;-80
2023/10/22 14:40:53;;;;;;;;;;;;;;;;;;109326;1251;58907;-79
2023/10/22 14:43:20;;;;;;;;;;;;;;;;;;109334;1253;59023;-79
2023/10/22 14:45:46;;;;;;;;;;;;;;;;;;109340;1255;58416;-79
2023/10/22 14:48:12;;;;;;;;;;;;;;;;;;109343;1251;58290;-80
2023/10/22 14:50:38;;;;;;;;;;;;;;;;;;109342;1251;58867;-79
2023/10/22 14:53:05;;;;;;;;;;;;;;;;;;109340;1253;58262;-80
2023/10/22 14:55:31;;;;;;;;;;;;;;;;;;109357;1251;58250;-80
2023/10/22 14:57:58;;;;;;;;;;;;;;;;;;109370;1251;58925;-80
2023/10/22 15:00:24;;;;;;;;;;;;;;;;;;109352;1255;58237;-80
2023/10/22 15:02:50;;;;;;;;;;;;;;;;;;109280;1253;58179;-79
2023/10/22 15:05:18;;;;;;;;;;;;;;;;;;109334;1252;58525;-79
2023/10/22 15:07:44;;;;;;;;;;;;;;;;;;109332;1253;58255;-80
2023/10/22 15:10:11;;;;;;;;;;;;;;;;;;109303;1251;58266;-80
2023/10/22 15:12:37;;;;;;;;;;;;;;;;;;109333;1251;58182;-79
2023/10/22 15:15:03;;;;;;;;;;;;;;;;;;109310;1252;58228;-80
2023/10/22 15:17:30;;;;;;;;;;;;;;;;;;109336;1252;58802;-80
2023/10/22 15:19:56;;;;;;;;;;;;;;;;;;109337;1251;58806;-80
2023/10/22 15:22:22;;;;;;;;;;;;;;;;;;109336;1251;58279;-80
2023/10/22 15:24:48;;;;;;;;;;;;;;;;;;109387;1251;58183;-79
2023/10/22 15:27:15;;;;;;;;;;;;;;;;;;109335;1251;58448;-80
2023/10/22 15:29:41;;;;;;;;;;;;;;;;;;109366;1251;58898;-79
2023/10/22 15:32:07;;;;;;;;;;;;;;;;;;109346;1252;58827;-80
2023/10/22 15:34:34;;;;;;;;;;;;;;;;;;109376;1251;58910;-80
2023/10/22 15:37:00;;;;;;;;;;;;;;;;;;109360;1251;58542;-80
2023/10/22 15:39:26;;;;;;;;;;;;;;;;;;109362;1253;58363;-80
2023/10/22 15:41:53;;;;;;;;;;;;;;;;;;109336;1251;58451;-80
2023/10/22 15:44:19;;;;;;;;;;;;;;;;;;109313;1251;58251;-80
2023/10/22 15:46:45;;;;;;;;;;;;;;;;;;109360;1251;58143;-79
2023/10/22 15:49:12;;;;;;;;;;;;;;;;;;109391;1251;58271;-80
2023/10/22 15:51:38;;;;;;;;;;;;;;;;;;109355;1251;58756;-80
2023/10/22 15:54:05;;;;;;;;;;;;;;;;;;109429;1253;58209;-80
2023/10/22 15:56:31;;;;;;;;;;;;;;;;;;109335;1251;58328;-79
2023/10/22 15:58:57;;;;;;;;;;;;;;;;;;109358;1251;58693;-79
2023/10/22 16:01:23;;;;;;;;;;;;;;;;;;109335;1251;58226;-80
2023/10/22 16:03:50;;;;;;;;;;;;;;;;;;109231;1253;58545;-80
2023/10/22 16:06:16;;;;;;;;;;;;;;;;;;109282;1251;58216;-79
2023/10/22 16:08:45;;;;;;;;;;;;;;;;;;109277;1252;58227;-79
2023/10/22 16:11:12;;;;;;;;;;;;;;;;;;109316;1251;58300;-79
2023/10/22 16:13:38;;;;;;;;;;;;;;;;;;109328;1251;58262;-80
2023/10/22 16:16:04;;;;;;;;;;;;;;;;;;109321;1253;58472;-80
2023/10/22 16:18:31;;;;;;;;;;;;;;;;;;109293;1252;58234;-79
2023/10/22 16:20:57;;;;;;;;;;;;;;;;;;109311;1251;58968;-80